createdAt,value
2019-04-30T00:02:27.835Z,9.00
2019-04-30T00:04:56.602Z,9.00
2019-04-30T00:07:25.347Z,9.00
2019-04-30T00:09:55.205Z,9.10
2019-04-30T00:12:25.753Z,9.10
2019-04-30T00:14:55.033Z,9.10
2019-04-30T00:17:25.557Z,9.10
2019-04-30T00:19:58.222Z,9.10
2019-04-30T00:22:31.725Z,9.10
2019-04-30T00:24:55.656Z,9.10
2019-04-30T00:27:26.344Z,9.10
2019-04-30T00:29:55.805Z,9.10
2019-04-30T00:32:25.832Z,9.10
2019-04-30T00:34:55.668Z,9.10
2019-04-30T00:37:25.473Z,9.10
2019-04-30T00:39:55.553Z,9.10
2019-04-30T00:42:28.412Z,9.10
2019-04-30T00:44:55.296Z,9.10
2019-04-30T00:47:25.663Z,9.10
2019-04-30T00:49:58.846Z,9.10
2019-04-30T00:52:25.303Z,9.10
2019-04-30T00:54:55.330Z,9.10
2019-04-30T00:57:26.369Z,9.10
2019-04-30T00:59:54.897Z,9.10
2019-04-30T01:05:22.453Z,9.20
2019-04-30T01:07:51.934Z,9.20
2019-04-30T01:10:24.795Z,9.20
2019-04-30T01:12:50.645Z,9.20
2019-04-30T01:15:19.164Z,9.20
2019-04-30T01:17:51.013Z,9.20
2019-04-30T01:20:19.359Z,9.20
2019-04-30T01:22:48.707Z,9.10
2019-04-30T01:25:18.681Z,9.10
2019-04-30T01:27:49.105Z,9.10
2019-04-30T01:30:22.557Z,9.10
2019-04-30T01:32:51.956Z,9.10
2019-04-30T01:35:19.124Z,9.10
2019-04-30T01:37:48.792Z,9.10
2019-04-30T01:40:19.053Z,9.10
2019-04-30T01:42:50.773Z,9.10
2019-04-30T01:45:18.806Z,9.10
2019-04-30T01:47:49.123Z,9.10
2019-04-30T01:50:19.277Z,9.10
2019-04-30T01:52:53.659Z,9.20
2019-04-30T01:55:25.087Z,9.20
2019-04-30T01:57:59.165Z,9.20
2019-04-30T02:00:29.394Z,9.20
2019-04-30T02:02:59.233Z,9.20
2019-04-30T02:05:28.748Z,9.30
2019-04-30T02:07:58.501Z,9.30
2019-04-30T02:10:28.538Z,9.30
2019-04-30T02:12:58.953Z,9.30
2019-04-30T02:15:29.046Z,9.30
2019-04-30T02:17:58.724Z,9.30
2019-04-30T02:20:28.686Z,9.30
2019-04-30T02:22:58.698Z,9.40
2019-04-30T02:25:29.351Z,9.30
2019-04-30T02:27:59.091Z,9.40
2019-04-30T02:30:30.509Z,9.40
2019-04-30T02:33:19.928Z,9.40
2019-04-30T02:36:05.923Z,9.40
2019-04-30T02:38:36.106Z,9.40
2019-04-30T02:41:05.162Z,9.40
2019-04-30T02:43:53.303Z,9.40
2019-04-30T02:46:23.255Z,9.40
2019-04-30T02:48:53.619Z,9.40
2019-04-30T02:51:24.683Z,9.40
2019-04-30T02:54:11.320Z,9.40
2019-04-30T02:56:44.438Z,9.40
2019-04-30T02:59:12.887Z,9.40
2019-04-30T03:01:43.983Z,9.40
2019-04-30T03:04:12.442Z,9.40
2019-04-30T03:06:41.321Z,9.40
2019-04-30T03:09:11.037Z,9.40
2019-04-30T03:11:40.907Z,9.40
2019-04-30T03:14:10.331Z,9.40
2019-04-30T03:16:46.726Z,9.40
2019-04-30T03:19:22.315Z,9.40
2019-04-30T03:21:55.321Z,9.40
2019-04-30T03:24:23.987Z,9.40
2019-04-30T03:26:52.445Z,9.40
2019-04-30T03:29:23.898Z,9.30
2019-04-30T03:31:52.507Z,9.40
2019-04-30T03:34:25.831Z,9.40
2019-04-30T03:36:51.457Z,9.40
2019-04-30T03:39:25.687Z,9.40
2019-04-30T03:41:54.116Z,9.40
2019-04-30T03:44:25.855Z,9.40
2019-04-30T03:46:52.777Z,9.40
2019-04-30T03:52:19.666Z,9.40
2019-04-30T03:54:49.452Z,9.40
2019-04-30T03:57:20.470Z,9.40
2019-04-30T03:59:49.989Z,9.40
2019-04-30T04:02:25.980Z,9.40
2019-04-30T04:04:56.075Z,9.40
2019-04-30T04:07:29.967Z,9.40
2019-04-30T04:10:00.386Z,9.40
2019-04-30T04:12:30.460Z,9.40
2019-04-30T04:15:03.287Z,9.40
2019-04-30T04:17:31.389Z,9.40
2019-04-30T04:19:59.990Z,9.40
2019-04-30T04:22:30.672Z,9.40
2019-04-30T04:25:00.104Z,9.40
2019-04-30T04:27:30.097Z,9.40
2019-04-30T04:30:01.059Z,9.40
2019-04-30T04:32:30.727Z,9.40
2019-04-30T04:46:04.441Z,9.50
2019-04-30T04:48:33.456Z,9.50
2019-04-30T04:51:01.921Z,9.50
2019-04-30T04:53:30.617Z,9.50
2019-04-30T04:55:59.896Z,9.50
2019-04-30T04:58:30.223Z,9.60
2019-04-30T05:00:59.299Z,9.60
2019-04-30T05:03:29.897Z,9.60
2019-04-30T05:06:01.895Z,9.60
2019-04-30T05:08:28.693Z,9.60
2019-04-30T05:10:57.140Z,9.60
2019-04-30T05:13:25.651Z,9.60
2019-04-30T05:15:54.665Z,9.70
2019-04-30T05:18:23.107Z,9.70
2019-04-30T05:20:55.940Z,9.70
2019-04-30T05:23:22.017Z,9.70
2019-04-30T05:25:50.508Z,9.70
2019-04-30T05:28:20.302Z,9.70
2019-04-30T05:30:49.429Z,9.70
2019-04-30T05:33:18.655Z,9.70
2019-04-30T05:35:47.202Z,9.70
2019-04-30T05:38:15.651Z,9.60
2019-04-30T05:40:44.523Z,9.60
2019-04-30T05:43:12.971Z,9.60
2019-04-30T05:45:41.419Z,9.60
2019-04-30T05:48:12.868Z,9.60
2019-04-30T05:50:41.672Z,9.60
2019-04-30T05:53:10.497Z,9.60
2019-04-30T05:55:41.778Z,9.70
2019-04-30T05:58:11.773Z,9.70
2019-04-30T06:00:59.832Z,9.70
2019-04-30T06:03:33.038Z,9.70
2019-04-30T06:05:58.979Z,9.80
2019-04-30T06:08:29.322Z,9.80
2019-04-30T06:11:05.181Z,9.80
2019-04-30T06:13:49.151Z,9.80
2019-04-30T06:16:18.917Z,9.80
2019-04-30T06:18:48.546Z,9.80
2019-04-30T06:21:19.283Z,9.80
2019-04-30T06:23:49.184Z,9.80
2019-04-30T06:26:20.462Z,9.80
2019-04-30T06:28:49.625Z,9.80
2019-04-30T06:31:22.280Z,9.80
2019-04-30T06:33:48.712Z,9.80
2019-04-30T06:36:19.055Z,9.80
2019-04-30T06:38:48.869Z,9.90
2019-04-30T06:41:17.553Z,9.90
2019-04-30T06:43:46.367Z,9.90
2019-04-30T06:46:14.864Z,10.00
2019-04-30T06:48:45.857Z,10.00
2019-04-30T06:51:13.573Z,10.10
2019-04-30T06:54:01.362Z,10.10
2019-04-30T06:56:29.780Z,10.20
2019-04-30T06:58:59.015Z,10.20
2019-04-30T07:01:29.035Z,10.20
2019-04-30T07:04:00.786Z,10.20
2019-04-30T07:06:32.307Z,10.30
2019-04-30T07:09:02.700Z,10.40
2019-04-30T07:11:32.755Z,10.50
2019-04-30T07:14:01.303Z,10.60
2019-04-30T07:16:30.221Z,10.60
2019-04-30T07:18:58.740Z,10.60
2019-04-30T07:21:29.428Z,10.60
2019-04-30T07:23:59.557Z,10.60
2019-04-30T07:26:28.908Z,10.60
2019-04-30T07:29:01.846Z,10.60
2019-04-30T07:31:29.570Z,10.60
2019-04-30T07:33:59.467Z,10.60
2019-04-30T07:36:43.328Z,10.70
2019-04-30T07:38:59.920Z,10.90
2019-04-30T07:41:30.821Z,10.90
2019-04-30T07:43:59.295Z,10.90
2019-04-30T07:46:29.797Z,11.10
2019-04-30T07:49:00.013Z,11.20
2019-04-30T07:51:32.076Z,11.50
2019-04-30T07:53:59.110Z,11.70
2019-04-30T07:56:32.156Z,11.70
2019-04-30T07:59:00.741Z,11.90
2019-04-30T08:01:30.997Z,11.70
2019-04-30T08:04:01.329Z,11.60
2019-04-30T08:06:31.144Z,11.40
2019-04-30T08:09:00.987Z,11.40
2019-04-30T08:11:34.442Z,11.60
2019-04-30T08:14:00.350Z,11.80
2019-04-30T08:16:29.025Z,11.70
2019-04-30T08:18:59.200Z,12.30
2019-04-30T08:21:28.767Z,12.70
2019-04-30T08:23:59.362Z,12.40
2019-04-30T08:26:28.677Z,12.40
2019-04-30T08:28:57.339Z,12.30
2019-04-30T08:31:26.494Z,12.10
2019-04-30T08:33:54.908Z,12.00
2019-04-30T08:36:23.346Z,12.00
2019-04-30T08:38:51.824Z,11.70
2019-04-30T08:41:20.265Z,11.80
2019-04-30T08:43:49.660Z,11.90
2019-04-30T08:46:19.077Z,11.90
2019-04-30T08:48:51.643Z,11.90
2019-04-30T08:51:19.052Z,12.00
2019-04-30T08:53:48.629Z,11.90
2019-04-30T08:56:17.228Z,11.90
2019-04-30T08:58:46.035Z,11.90
2019-04-30T09:01:14.630Z,11.90
2019-04-30T09:03:43.147Z,11.90
2019-04-30T09:06:13.261Z,11.90
2019-04-30T09:08:42.159Z,11.90
2019-04-30T09:11:22.450Z,11.90
2019-04-30T09:13:43.818Z,12.10
2019-04-30T09:16:13.056Z,12.40
2019-04-30T09:18:41.739Z,12.50
2019-04-30T09:21:11.865Z,12.40
2019-04-30T09:23:49.460Z,12.60
2019-04-30T09:26:12.184Z,12.50
2019-04-30T09:28:41.170Z,12.40
2019-04-30T09:31:09.580Z,12.50
2019-04-30T09:33:41.353Z,12.90
2019-04-30T09:36:12.490Z,13.10
2019-04-30T09:38:42.499Z,13.10
2019-04-30T09:41:12.494Z,13.00
2019-04-30T09:43:42.456Z,13.10
2019-04-30T09:46:21.996Z,13.20
2019-04-30T09:48:43.798Z,13.20
2019-04-30T09:51:12.920Z,13.10
2019-04-30T09:53:42.197Z,13.50
2019-04-30T09:56:11.080Z,13.50
2019-04-30T09:58:40.166Z,13.60
2019-04-30T10:01:10.267Z,14.00
2019-04-30T10:03:40.363Z,14.20
2019-04-30T10:06:09.775Z,14.60
2019-04-30T10:11:49.918Z,14.70
2019-04-30T10:14:18.174Z,14.20
2019-04-30T10:16:54.380Z,14.00
2019-04-30T10:19:22.807Z,14.10
2019-04-30T10:21:51.267Z,14.30
2019-04-30T10:24:19.761Z,13.90
2019-04-30T10:26:48.231Z,14.30
2019-04-30T10:29:17.709Z,14.90
2019-04-30T10:31:48.901Z,15.80
2019-04-30T10:34:17.194Z,16.10
2019-04-30T10:36:45.753Z,16.60
2019-04-30T10:39:14.384Z,16.20
2019-04-30T10:41:42.804Z,16.30
2019-04-30T10:44:14.159Z,15.90
2019-04-30T10:46:42.613Z,15.90
2019-04-30T10:49:12.751Z,16.00
2019-04-30T10:51:43.915Z,16.30
2019-04-30T10:54:23.206Z,15.50
2019-04-30T10:56:42.515Z,15.30
2019-04-30T10:59:12.556Z,15.90
2019-04-30T11:01:42.597Z,15.70
2019-04-30T11:04:24.887Z,15.90
2019-04-30T11:06:53.477Z,15.80
2019-04-30T11:09:21.990Z,15.20
2019-04-30T11:11:53.472Z,15.50
2019-04-30T11:14:21.926Z,15.30
2019-04-30T11:16:51.750Z,15.40
2019-04-30T11:19:20.583Z,15.60
2019-04-30T11:21:49.381Z,16.10
2019-04-30T11:24:19.611Z,15.70
2019-04-30T11:26:50.162Z,15.60
2019-04-30T11:29:18.574Z,15.60
2019-04-30T11:32:04.006Z,15.70
2019-04-30T11:34:32.664Z,15.90
2019-04-30T11:37:01.340Z,15.90
2019-04-30T11:39:29.908Z,15.90
2019-04-30T11:41:58.399Z,15.80
2019-04-30T11:44:31.357Z,15.70
2019-04-30T11:47:00.543Z,15.70
2019-04-30T11:49:29.129Z,15.40
2019-04-30T11:51:57.809Z,15.30
2019-04-30T11:54:26.357Z,15.40
2019-04-30T11:56:54.888Z,15.20
2019-04-30T11:59:23.317Z,15.30
2019-04-30T12:01:53.456Z,15.60
2019-04-30T12:04:21.887Z,15.60
2019-04-30T12:06:50.944Z,15.60
2019-04-30T12:09:38.610Z,15.80
2019-04-30T12:12:09.035Z,15.80
2019-04-30T12:14:42.078Z,16.00
2019-04-30T12:17:13.438Z,16.10
2019-04-30T12:19:41.919Z,15.80
2019-04-30T12:22:11.902Z,15.60
2019-04-30T12:24:41.917Z,15.90
2019-04-30T12:27:11.872Z,16.10
2019-04-30T12:29:41.888Z,15.90
2019-04-30T12:32:29.895Z,16.00
2019-04-30T12:34:58.498Z,16.00
2019-04-30T12:37:28.971Z,16.10
2019-04-30T12:39:57.065Z,16.10
2019-04-30T12:42:25.716Z,15.90
2019-04-30T12:44:54.350Z,16.10
2019-04-30T12:47:22.754Z,16.30
2019-04-30T12:50:00.941Z,16.40
2019-04-30T12:55:29.361Z,16.50
2019-04-30T12:58:01.650Z,16.70
2019-04-30T13:00:29.948Z,16.60
2019-04-30T13:03:04.061Z,16.80
2019-04-30T13:05:52.249Z,16.90
2019-04-30T13:08:21.990Z,16.80
2019-04-30T13:10:51.816Z,16.70
2019-04-30T13:13:21.139Z,16.80
2019-04-30T13:15:49.846Z,16.80
2019-04-30T13:18:39.386Z,16.80
2019-04-30T13:21:08.594Z,16.80
2019-04-30T13:23:37.286Z,16.90
2019-04-30T13:26:05.796Z,17.10
2019-04-30T13:28:51.860Z,17.40
2019-04-30T13:31:20.372Z,17.60
2019-04-30T13:36:40.719Z,17.50
2019-04-30T13:39:09.863Z,17.30
2019-04-30T13:44:19.480Z,17.30
2019-04-30T13:46:48.212Z,17.20
2019-04-30T13:49:16.644Z,17.30
2019-04-30T13:51:45.104Z,17.30
2019-04-30T13:54:13.554Z,17.30
2019-04-30T13:56:41.975Z,17.40
2019-04-30T13:59:10.399Z,17.60
2019-04-30T14:01:39.118Z,17.60
2019-04-30T14:04:09.290Z,17.60
2019-04-30T14:06:45.371Z,17.60
2019-04-30T14:09:21.692Z,17.60
2019-04-30T14:11:50.201Z,17.60
2019-04-30T14:14:20.017Z,17.60
2019-04-30T14:16:48.512Z,17.40
2019-04-30T14:19:16.919Z,17.40
2019-04-30T14:21:45.388Z,17.40
2019-04-30T14:24:14.110Z,17.60
2019-04-30T14:26:42.537Z,17.70
2019-04-30T14:29:10.956Z,17.70
2019-04-30T14:31:39.390Z,17.70
2019-04-30T14:34:10.026Z,17.60
2019-04-30T14:36:39.201Z,17.80
2019-04-30T14:39:16.079Z,17.80
2019-04-30T14:41:40.336Z,17.80
2019-04-30T14:44:31.861Z,18.00
2019-04-30T14:47:11.789Z,17.90
2019-04-30T14:50:01.587Z,17.90
2019-04-30T14:52:23.241Z,18.00
2019-04-30T14:55:02.308Z,18.00
2019-04-30T14:57:32.390Z,18.10
2019-04-30T15:00:02.433Z,18.00
2019-04-30T15:02:44.545Z,18.10
2019-04-30T15:05:13.194Z,18.10
2019-04-30T15:07:41.845Z,17.90
2019-04-30T15:10:11.912Z,17.90
2019-04-30T15:12:41.900Z,17.70
2019-04-30T15:15:11.366Z,17.70
2019-04-30T15:17:42.765Z,18.00
2019-04-30T15:20:14.676Z,17.80
2019-04-30T15:22:44.778Z,17.70
2019-04-30T15:25:13.544Z,17.80
2019-04-30T15:27:45.202Z,18.00
2019-04-30T15:30:12.985Z,18.00
2019-04-30T15:32:43.366Z,18.10
2019-04-30T15:35:11.890Z,18.10
2019-04-30T15:37:43.587Z,18.10
2019-04-30T15:40:12.111Z,18.10
2019-04-30T15:42:45.061Z,18.20
2019-04-30T15:45:16.188Z,18.10
2019-04-30T15:47:44.629Z,18.10
2019-04-30T15:50:13.401Z,18.10
2019-04-30T15:52:41.886Z,18.10
2019-04-30T15:55:12.326Z,18.20
2019-04-30T15:57:45.235Z,18.30
2019-04-30T16:00:13.839Z,18.30
2019-04-30T16:02:54.748Z,18.30
2019-04-30T16:05:19.425Z,18.40
2019-04-30T16:07:49.508Z,18.30
2019-04-30T16:10:25.583Z,18.40
2019-04-30T16:12:58.873Z,18.40
2019-04-30T16:15:29.647Z,18.50
2019-04-30T16:18:05.054Z,18.40
2019-04-30T16:20:33.487Z,18.30
2019-04-30T16:23:02.093Z,18.30
2019-04-30T16:25:32.592Z,18.40
2019-04-30T16:28:01.279Z,18.50
2019-04-30T16:30:29.691Z,18.50
2019-04-30T16:32:59.648Z,18.50
2019-04-30T16:35:29.577Z,18.40
2019-04-30T16:38:01.065Z,18.30
2019-04-30T16:40:29.488Z,18.40
2019-04-30T16:42:58.004Z,18.40
2019-04-30T16:45:26.465Z,18.20
2019-04-30T16:47:54.918Z,18.30
2019-04-30T16:50:23.368Z,18.20
2019-04-30T16:55:24.194Z,18.20
2019-04-30T16:57:52.645Z,18.10
2019-04-30T17:00:21.331Z,18.10
2019-04-30T17:02:51.407Z,18.00
2019-04-30T17:05:30.435Z,18.00
2019-04-30T17:08:01.855Z,18.00
2019-04-30T17:10:50.298Z,18.10
2019-04-30T17:13:29.017Z,18.70
2019-04-30T17:16:01.734Z,19.40
2019-04-30T17:18:30.157Z,19.60
2019-04-30T17:20:58.690Z,19.70
2019-04-30T17:23:29.230Z,19.50
2019-04-30T17:25:57.335Z,19.20
2019-04-30T17:28:25.764Z,18.60
2019-04-30T17:30:54.177Z,18.20
2019-04-30T17:33:22.654Z,17.90
2019-04-30T17:35:51.128Z,17.90
2019-04-30T17:38:19.536Z,17.70
2019-04-30T17:40:49.683Z,17.60
2019-04-30T17:43:18.264Z,17.60
2019-04-30T17:45:46.703Z,17.60
2019-04-30T17:48:15.115Z,17.50
2019-04-30T17:50:43.603Z,17.40
2019-04-30T17:53:12.054Z,17.40
2019-04-30T17:55:40.499Z,17.40
2019-04-30T17:58:09.776Z,17.50
2019-04-30T18:00:40.094Z,17.40
2019-04-30T18:03:08.798Z,17.30
2019-04-30T18:05:39.183Z,17.10
2019-04-30T18:08:07.816Z,17.00
2019-04-30T18:10:36.242Z,16.90
2019-04-30T18:13:04.641Z,16.80
2019-04-30T18:15:33.164Z,16.70
2019-04-30T18:18:03.229Z,16.50
2019-04-30T18:20:36.296Z,16.30
2019-04-30T18:23:15.502Z,16.10
2019-04-30T18:25:45.567Z,15.90
2019-04-30T18:28:13.997Z,15.60
2019-04-30T18:30:42.494Z,15.40
2019-04-30T18:33:10.914Z,15.20
2019-04-30T18:35:39.525Z,15.00
2019-04-30T18:38:09.767Z,14.80
2019-04-30T18:40:39.779Z,14.60
2019-04-30T18:43:28.737Z,14.40
2019-04-30T18:45:57.533Z,14.30
2019-04-30T18:48:26.054Z,14.10
2019-04-30T18:50:54.646Z,13.90
2019-04-30T18:53:26.067Z,13.70
2019-04-30T18:55:55.356Z,13.50
2019-04-30T18:58:38.910Z,13.30
2019-04-30T19:00:56.367Z,13.10
2019-04-30T19:03:24.791Z,12.90
2019-04-30T19:06:03.618Z,12.80
2019-04-30T19:08:33.676Z,12.50
2019-04-30T19:11:19.073Z,12.40
2019-04-30T19:13:54.791Z,12.30
2019-04-30T19:16:27.694Z,12.20
2019-04-30T19:21:53.259Z,12.10
2019-04-30T19:24:22.060Z,11.90
2019-04-30T19:26:50.894Z,11.90
2019-04-30T19:29:23.047Z,11.80
2019-04-30T19:31:52.449Z,11.70
2019-04-30T19:34:21.453Z,11.60
2019-04-30T19:36:50.675Z,11.60
2019-04-30T19:39:20.522Z,11.50
2019-04-30T19:41:49.227Z,11.40
2019-04-30T19:44:22.741Z,11.30
2019-04-30T19:46:51.822Z,11.20
2019-04-30T19:49:20.507Z,11.20
2019-04-30T19:51:53.167Z,11.00
2019-04-30T19:54:20.050Z,10.90
2019-04-30T19:56:50.167Z,10.90
2019-04-30T19:59:19.398Z,10.80
2019-04-30T20:01:57.187Z,10.70
2019-04-30T20:04:33.287Z,10.60
2019-04-30T20:06:59.051Z,10.50
2019-04-30T20:09:29.086Z,10.40
2019-04-30T20:11:59.611Z,10.40
2019-04-30T20:14:29.225Z,10.40
2019-04-30T20:16:59.028Z,10.30
2019-04-30T20:19:34.259Z,10.20
2019-04-30T20:22:10.364Z,10.20
2019-04-30T20:24:39.433Z,10.10
2019-04-30T20:27:10.128Z,10.10
2019-04-30T20:29:40.908Z,10.00
2019-04-30T20:32:16.812Z,10.00
2019-04-30T20:34:45.435Z,10.00
2019-04-30T20:37:13.877Z,9.90
2019-04-30T20:40:02.159Z,9.80
2019-04-30T20:42:30.591Z,9.80
2019-04-30T20:44:59.059Z,9.70
2019-04-30T20:47:29.839Z,9.60
2019-04-30T20:50:17.011Z,9.60
2019-04-30T20:52:45.469Z,9.50
2019-04-30T20:55:13.929Z,9.40
2019-04-30T20:57:42.455Z,9.40
2019-04-30T21:00:12.666Z,9.40
2019-04-30T21:02:44.160Z,9.30
2019-04-30T21:05:18.454Z,9.20
2019-04-30T21:07:47.366Z,9.20
2019-04-30T21:10:15.922Z,9.20
2019-04-30T21:12:44.379Z,9.10
2019-04-30T21:15:13.324Z,9.00
2019-04-30T21:17:41.835Z,9.00
2019-04-30T21:20:31.936Z,8.90
2019-04-30T21:23:11.419Z,8.90
2019-04-30T21:25:48.809Z,8.80
2019-04-30T21:31:30.165Z,8.70
2019-04-30T21:36:49.713Z,8.60
2019-04-30T21:39:19.992Z,8.60
2019-04-30T21:42:04.766Z,8.50
2019-04-30T21:44:35.429Z,8.40
2019-04-30T21:47:04.511Z,8.40
2019-04-30T21:49:32.974Z,8.40
2019-04-30T21:52:01.407Z,8.30
2019-04-30T21:54:30.532Z,8.30
2019-04-30T21:56:59.093Z,8.30
2019-04-30T21:59:28.737Z,8.30
2019-04-30T22:04:48.979Z,8.30
2019-04-30T22:07:19.471Z,8.20
2019-04-30T22:10:09.674Z,8.10
2019-04-30T22:12:39.347Z,8.00
2019-04-30T22:15:10.551Z,7.90
2019-04-30T22:17:41.903Z,7.80
2019-04-30T22:20:11.150Z,7.70
2019-04-30T22:22:39.662Z,7.70
2019-04-30T22:25:09.444Z,7.70
2019-04-30T22:27:38.032Z,7.70
2019-04-30T22:30:11.537Z,7.60
2019-04-30T22:32:39.977Z,7.70
2019-04-30T22:35:28.084Z,7.60
2019-04-30T22:37:59.239Z,7.60
2019-04-30T22:40:31.340Z,7.60
2019-04-30T22:43:01.899Z,7.50
2019-04-30T22:45:34.483Z,7.50
2019-04-30T22:48:02.917Z,7.40
2019-04-30T22:50:31.369Z,7.30
2019-04-30T22:53:00.339Z,7.30
2019-04-30T22:55:28.936Z,7.30
2019-04-30T22:58:16.777Z,7.20
2019-04-30T23:00:46.599Z,7.20
2019-04-30T23:03:16.661Z,7.10
2019-04-30T23:05:45.158Z,7.10
2019-04-30T23:08:26.336Z,7.10
2019-04-30T23:10:55.500Z,7.00
2019-04-30T23:13:24.332Z,6.90
2019-04-30T23:15:54.957Z,6.90
2019-04-30T23:18:23.401Z,6.80
2019-04-30T23:20:51.859Z,6.80
2019-04-30T23:23:20.273Z,6.80
2019-04-30T23:25:48.713Z,6.80
2019-04-30T23:28:17.127Z,6.70
2019-04-30T23:30:46.060Z,6.70
2019-04-30T23:33:14.577Z,6.70
2019-04-30T23:35:43.077Z,6.70
2019-04-30T23:38:11.692Z,6.70
2019-04-30T23:40:48.090Z,6.70
2019-04-30T23:43:16.589Z,6.60
2019-04-30T23:45:45.190Z,6.60
2019-04-30T23:48:13.930Z,6.50
2019-04-30T23:50:49.153Z,6.50
2019-04-30T23:53:17.928Z,6.40
2019-04-30T23:55:46.498Z,6.30
2019-04-30T23:58:14.940Z,6.30
